Time;durP1;ratioP1;P1;durP2;ratioP2;P2;SDS_P1;SDS_P2;PMS_P1;PMS_P2;Temp;Humidity;BMP_temperature;BMP_pressure;BME280_temperature;BME280_humidity;BME280_pressure;Samples;Min_cycle;Max_cycle;Signal;HPM_P1;HPM_P2
2022/08/01 00:00:29;;;;;;;;;;;18.90;99.90;;;;;;4942933;29;19922;-80
2022/08/01 00:02:55;;;;;;;;;;;18.80;99.90;;;;;;4951185;28;20422;-80
2022/08/01 00:05:20;;;;;;;;;;;18.80;99.90;;;;;;4956027;28;19925;-81
2022/08/01 00:07:46;;;;;;;;;;;18.80;99.90;;;;;;4964559;28;20210;-79
2022/08/01 00:10:13;;;;;;;;;;;18.80;99.90;;;;;;4952023;29;20478;-79
2022/08/01 00:12:39;;;;;;;;;;;18.80;99.90;;;;;;4958358;29;19910;-80
2022/08/01 00:15:06;;;;;;;;;;;18.80;99.90;;;;;;4945237;28;19915;-81
2022/08/01 00:17:32;;;;;;;;;;;18.70;99.90;;;;;;4938466;29;19922;-80
2022/08/01 00:19:58;;;;;;;;;;;18.70;99.90;;;;;;4934438;29;19915;-79
2022/08/01 00:22:23;;;;;;;;;;;18.70;99.90;;;;;;4944403;28;20555;-80
2022/08/01 00:24:49;;;;;;;;;;;18.60;99.90;;;;;;4944825;28;20074;-80
2022/08/01 00:27:14;;;;;;;;;;;18.60;99.90;;;;;;4960827;28;19926;-81
2022/08/01 00:29:40;;;;;;;;;;;18.60;99.90;;;;;;4950311;28;19996;-80
2022/08/01 00:32:06;;;;;;;;;;;18.60;99.90;;;;;;4965141;28;20005;-78
2022/08/01 00:34:32;;;;;;;;;;;18.50;99.90;;;;;;4949069;28;20438;-80
2022/08/01 00:36:58;;;;;;;;;;;18.50;99.90;;;;;;4958506;28;20472;-81
2022/08/01 00:39:24;;;;;;;;;;;18.40;99.90;;;;;;4953896;28;19910;-80
2022/08/01 00:41:50;;;;;;;;;;;18.30;99.90;;;;;;4956063;28;19910;-78
2022/08/01 00:44:15;;;;;;;;;;;18.30;99.90;;;;;;4953661;29;19910;-78
2022/08/01 00:46:42;;;;;;;;;;;18.30;99.90;;;;;;4959161;28;19918;-78
2022/08/01 00:49:07;;;;;;;;;;;18.20;99.90;;;;;;4960155;28;19910;-81
2022/08/01 00:51:33;;;;;;;;;;;18.20;99.90;;;;;;4958854;28;19921;-80
2022/08/01 00:54:00;;;;;;;;;;;18.20;99.90;;;;;;4952209;28;19936;-78
2022/08/01 00:56:26;;;;;;;;;;;18.00;99.90;;;;;;4960030;28;19922;-81
2022/08/01 00:58:52;;;;;;;;;;;18.00;99.90;;;;;;4947851;28;20422;-81
2022/08/01 01:01:20;;;;;;;;;;;17.90;99.90;;;;;;4947667;29;19937;-82
2022/08/01 01:03:46;;;;;;;;;;;17.80;99.90;;;;;;4952191;28;19914;-79
2022/08/01 01:06:21;;;;;;;;;;;17.80;99.90;;;;;;4940477;28;19965;-80
2022/08/01 01:08:52;;;;;;;;;;;17.80;99.90;;;;;;4948241;29;19937;-79
2022/08/01 01:11:24;;;;;;;;;;;17.80;99.90;;;;;;4940126;29;19918;-80
2022/08/01 01:13:52;;;;;;;;;;;17.80;99.90;;;;;;4941136;29;20140;-80
2022/08/01 01:16:19;;;;;;;;;;;17.80;99.90;;;;;;4957511;28;19907;-81
2022/08/01 01:18:47;;;;;;;;;;;17.80;99.90;;;;;;4955582;28;20291;-80
2022/08/01 01:21:16;;;;;;;;;;;17.80;99.90;;;;;;4954826;28;20398;-82
2022/08/01 01:24:00;;;;;;;;;;;17.80;99.90;;;;;;4955160;28;20213;-80
2022/08/01 01:26:43;;;;;;;;;;;17.80;99.90;;;;;;4971736;28;19914;-81
2022/08/01 01:29:13;;;;;;;;;;;17.70;99.90;;;;;;4952777;29;19991;-80
2022/08/01 01:31:41;;;;;;;;;;;17.80;99.90;;;;;;4961856;28;19945;-81
2022/08/01 01:34:08;;;;;;;;;;;17.70;99.90;;;;;;4951990;28;19910;-79
2022/08/01 01:36:35;;;;;;;;;;;17.70;99.90;;;;;;4948362;28;19906;-79
2022/08/01 01:39:01;;;;;;;;;;;17.70;99.90;;;;;;4947922;28;19911;-80
2022/08/01 01:41:27;;;;;;;;;;;17.70;99.90;;;;;;4951020;29;19992;-79
2022/08/01 01:43:53;;;;;;;;;;;17.70;99.90;;;;;;4948524;29;20022;-79
2022/08/01 01:46:23;;;;;;;;;;;17.60;99.90;;;;;;4963530;28;19997;-80
2022/08/01 01:48:49;;;;;;;;;;;17.60;99.90;;;;;;4960638;28;19915;-81
2022/08/01 01:51:15;;;;;;;;;;;17.60;99.90;;;;;;4963537;28;19915;-80
2022/08/01 01:53:41;;;;;;;;;;;17.60;99.90;;;;;;4928541;29;20017;-80
2022/08/01 01:56:08;;;;;;;;;;;17.60;99.90;;;;;;4943441;28;19915;-80
2022/08/01 01:58:34;;;;;;;;;;;17.50;99.90;;;;;;4941943;29;19922;-80
2022/08/01 02:01:01;;;;;;;;;;;17.50;99.90;;;;;;4949979;28;19961;-79
2022/08/01 02:03:27;;;;;;;;;;;17.50;99.90;;;;;;4950962;28;19921;-81
2022/08/01 02:05:54;;;;;;;;;;;17.50;99.90;;;;;;4949164;28;19914;-79
2022/08/01 02:08:20;;;;;;;;;;;17.50;99.90;;;;;;4948957;29;19914;-80
2022/08/01 02:11:17;;;;;;;;;;;17.40;99.90;;;;;;4951398;28;19925;-79
2022/08/01 02:13:34;;;;;;;;;;;17.40;99.90;;;;;;4951456;29;19973;-80
2022/08/01 02:16:00;;;;;;;;;;;17.30;99.90;;;;;;4946781;28;19917;-79
2022/08/01 02:18:26;;;;;;;;;;;17.30;99.90;;;;;;4949696;29;19966;-79
2022/08/01 02:20:54;;;;;;;;;;;17.30;99.90;;;;;;4950927;29;19918;-80
2022/08/01 02:23:21;;;;;;;;;;;17.20;99.90;;;;;;4945914;28;19918;-79
2022/08/01 02:25:52;;;;;;;;;;;17.20;99.90;;;;;;4947008;28;20390;-79
2022/08/01 02:28:25;;;;;;;;;;;17.10;99.90;;;;;;4945095;28;20018;-79
2022/08/01 02:30:50;;;;;;;;;;;17.10;99.90;;;;;;4967032;28;20426;-79
2022/08/01 02:33:18;;;;;;;;;;;17.10;99.90;;;;;;4946582;29;19910;-79
2022/08/01 02:35:45;;;;;;;;;;;17.10;99.90;;;;;;4964855;28;19918;-79
2022/08/01 02:38:12;;;;;;;;;;;17.10;99.90;;;;;;4961317;28;20397;-80
2022/08/01 02:40:40;;;;;;;;;;;17.10;99.90;;;;;;4955679;29;19910;-80
2022/08/01 02:43:06;;;;;;;;;;;17.00;99.90;;;;;;4955651;28;19914;-82
2022/08/01 02:45:34;;;;;;;;;;;17.10;99.90;;;;;;4958298;28;19969;-79
2022/08/01 02:48:03;;;;;;;;;;;17.10;99.90;;;;;;4953000;29;19914;-81
2022/08/01 02:50:29;;;;;;;;;;;17.10;99.90;;;;;;4951862;28;20314;-80
2022/08/01 02:52:56;;;;;;;;;;;17.00;99.90;;;;;;4953595;29;19921;-80
2022/08/01 02:55:23;;;;;;;;;;;17.00;99.90;;;;;;4951269;28;19911;-80
2022/08/01 02:57:51;;;;;;;;;;;17.00;99.90;;;;;;4961571;28;19918;-78
2022/08/01 03:00:16;;;;;;;;;;;17.00;99.90;;;;;;4966776;28;20001;-79
2022/08/01 03:02:43;;;;;;;;;;;17.00;99.90;;;;;;4952642;29;19957;-79
2022/08/01 03:05:10;;;;;;;;;;;17.00;99.90;;;;;;4950720;29;19984;-80
2022/08/01 03:07:36;;;;;;;;;;;16.90;99.90;;;;;;4952253;28;19918;-79
2022/08/01 03:10:02;;;;;;;;;;;16.90;99.90;;;;;;4954038;28;19910;-79
2022/08/01 03:12:29;;;;;;;;;;;16.90;99.90;;;;;;4953260;29;19969;-80
2022/08/01 03:14:56;;;;;;;;;;;16.90;99.90;;;;;;4951910;28;19910;-81
2022/08/01 03:17:24;;;;;;;;;;;16.90;99.90;;;;;;4967336;28;20358;-81
2022/08/01 03:19:51;;;;;;;;;;;16.80;99.90;;;;;;4952700;28;20302;-79
2022/08/01 03:22:16;;;;;;;;;;;16.80;99.90;;;;;;4952699;29;20290;-78
2022/08/01 03:24:43;;;;;;;;;;;16.70;99.90;;;;;;4944217;29;19910;-79
2022/08/01 03:27:10;;;;;;;;;;;16.70;99.90;;;;;;4956946;28;19956;-79
2022/08/01 03:29:36;;;;;;;;;;;16.70;99.90;;;;;;4952215;28;19919;-79
2022/08/01 03:32:02;;;;;;;;;;;16.60;99.90;;;;;;4949975;28;20318;-80
2022/08/01 03:34:28;;;;;;;;;;;16.70;99.90;;;;;;4951445;28;19907;-80
2022/08/01 03:37:15;;;;;;;;;;;16.70;99.90;;;;;;4959756;28;20307;-79
2022/08/01 03:39:46;;;;;;;;;;;16.70;99.90;;;;;;4967969;28;19934;-79
2022/08/01 03:42:13;;;;;;;;;;;16.70;99.90;;;;;;4948852;28;20019;-80
2022/08/01 03:44:41;;;;;;;;;;;16.70;99.90;;;;;;4963797;28;19914;-80
2022/08/01 03:47:08;;;;;;;;;;;16.70;99.90;;;;;;4947874;28;19914;-80
2022/08/01 03:49:42;;;;;;;;;;;16.70;99.90;;;;;;4954824;28;19922;-80
2022/08/01 03:52:09;;;;;;;;;;;16.70;99.90;;;;;;4952147;29;19910;-82
2022/08/01 03:54:37;;;;;;;;;;;16.80;99.90;;;;;;4948765;28;19910;-81
2022/08/01 03:57:03;;;;;;;;;;;16.70;99.90;;;;;;4957286;28;19915;-81
2022/08/01 03:59:29;;;;;;;;;;;16.70;99.90;;;;;;4948090;29;19958;-80
2022/08/01 04:01:55;;;;;;;;;;;16.70;99.90;;;;;;4958597;28;20005;-82
2022/08/01 04:04:21;;;;;;;;;;;16.70;99.90;;;;;;4961514;28;19963;-80
2022/08/01 04:06:50;;;;;;;;;;;16.60;99.90;;;;;;4942667;29;19925;-80
2022/08/01 04:09:15;;;;;;;;;;;16.60;99.90;;;;;;4950130;29;19912;-80
2022/08/01 04:11:41;;;;;;;;;;;16.60;99.90;;;;;;4948710;28;20357;-80
2022/08/01 04:14:07;;;;;;;;;;;16.60;99.90;;;;;;4955065;28;19921;-80
2022/08/01 04:16:34;;;;;;;;;;;16.60;99.90;;;;;;4951259;28;19918;-80
2022/08/01 04:18:59;;;;;;;;;;;16.50;99.90;;;;;;4947828;29;20310;-80
2022/08/01 04:21:29;;;;;;;;;;;16.60;99.90;;;;;;4952062;28;19914;-80
2022/08/01 04:23:57;;;;;;;;;;;16.60;99.90;;;;;;4950900;29;19910;-79
2022/08/01 04:26:24;;;;;;;;;;;16.60;99.90;;;;;;4958779;28;19915;-80
2022/08/01 04:28:51;;;;;;;;;;;16.60;99.90;;;;;;4951385;29;19981;-80
2022/08/01 04:31:18;;;;;;;;;;;16.60;99.90;;;;;;4949292;28;19962;-81
2022/08/01 04:33:47;;;;;;;;;;;16.60;99.90;;;;;;4934401;28;20351;-81
2022/08/01 04:36:14;;;;;;;;;;;16.60;99.90;;;;;;4952815;28;19910;-82
2022/08/01 04:38:42;;;;;;;;;;;16.70;99.90;;;;;;4936888;29;19914;-81
2022/08/01 04:41:09;;;;;;;;;;;16.80;99.90;;;;;;4942628;28;19965;-81
2022/08/01 04:43:36;;;;;;;;;;;16.80;99.90;;;;;;4936198;29;19921;-80
2022/08/01 04:46:03;;;;;;;;;;;16.90;99.90;;;;;;4944010;28;20005;-82
2022/08/01 04:48:29;;;;;;;;;;;17.00;99.90;;;;;;4949411;28;19919;-79
2022/08/01 04:50:55;;;;;;;;;;;17.00;99.90;;;;;;4952088;28;20418;-79
2022/08/01 04:53:24;;;;;;;;;;;17.10;99.90;;;;;;4968028;28;19918;-83
2022/08/01 04:55:49;;;;;;;;;;;17.20;99.90;;;;;;4951066;29;19916;-81
2022/08/01 04:58:15;;;;;;;;;;;17.40;99.90;;;;;;4959030;28;20430;-81
2022/08/01 05:00:41;;;;;;;;;;;17.50;99.90;;;;;;4969856;28;19918;-81
2022/08/01 05:03:06;;;;;;;;;;;17.60;99.90;;;;;;4955881;28;19914;-82
2022/08/01 05:05:32;;;;;;;;;;;17.70;99.90;;;;;;4970049;28;19934;-79
2022/08/01 05:07:58;;;;;;;;;;;17.90;99.90;;;;;;4953291;28;19985;-81
2022/08/01 05:10:23;;;;;;;;;;;17.90;99.90;;;;;;4952699;28;19914;-79
2022/08/01 05:12:49;;;;;;;;;;;18.00;99.90;;;;;;4956703;28;20287;-79
2022/08/01 05:15:16;;;;;;;;;;;18.00;99.90;;;;;;4937565;28;19921;-79
2022/08/01 05:17:44;;;;;;;;;;;18.10;99.90;;;;;;4951570;29;19922;-80
2022/08/01 05:20:11;;;;;;;;;;;18.20;99.90;;;;;;4945303;29;19910;-82
2022/08/01 05:22:37;;;;;;;;;;;18.30;99.90;;;;;;4956581;29;19914;-82
2022/08/01 05:25:04;;;;;;;;;;;18.40;99.90;;;;;;4948617;28;19926;-80
2022/08/01 05:27:30;;;;;;;;;;;18.50;99.90;;;;;;4947615;28;20571;-81
2022/08/01 05:29:56;;;;;;;;;;;18.60;99.90;;;;;;4948555;29;19922;-79
2022/08/01 05:32:22;;;;;;;;;;;18.70;99.90;;;;;;4951942;28;20528;-82
2022/08/01 05:34:47;;;;;;;;;;;18.80;99.90;;;;;;4952007;28;19914;-82
2022/08/01 05:37:13;;;;;;;;;;;18.90;99.90;;;;;;4951207;28;19914;-82
2022/08/01 05:39:39;;;;;;;;;;;18.90;99.90;;;;;;4950237;29;20433;-80
2022/08/01 05:42:05;;;;;;;;;;;19.00;99.90;;;;;;4950293;28;19922;-81
2022/08/01 05:44:30;;;;;;;;;;;19.00;99.90;;;;;;4931946;29;20986;-79
2022/08/01 05:46:56;;;;;;;;;;;19.10;99.90;;;;;;4950450;28;19949;-82
2022/08/01 05:49:22;;;;;;;;;;;19.20;99.90;;;;;;4949785;28;19925;-81
2022/08/01 05:51:47;;;;;;;;;;;19.30;99.90;;;;;;4935336;29;19954;-80
2022/08/01 05:54:13;;;;;;;;;;;19.40;99.90;;;;;;4946867;28;19915;-80
2022/08/01 05:56:38;;;;;;;;;;;19.50;99.90;;;;;;4935630;29;19941;-81
2022/08/01 05:59:04;;;;;;;;;;;19.60;99.90;;;;;;4934234;29;19915;-79
2022/08/01 06:01:30;;;;;;;;;;;19.70;99.90;;;;;;4953932;28;19915;-79
2022/08/01 06:03:55;;;;;;;;;;;19.70;99.90;;;;;;4966514;28;19914;-80
2022/08/01 06:06:21;;;;;;;;;;;19.90;99.90;;;;;;4945989;28;19918;-79
2022/08/01 06:08:47;;;;;;;;;;;19.90;99.90;;;;;;4955862;28;19922;-81
2022/08/01 06:11:13;;;;;;;;;;;20.10;99.90;;;;;;4961971;28;19910;-80
2022/08/01 06:13:38;;;;;;;;;;;20.20;99.90;;;;;;4956820;28;19965;-81
2022/08/01 06:16:04;;;;;;;;;;;20.30;99.90;;;;;;4957341;28;19922;-81
2022/08/01 06:18:30;;;;;;;;;;;20.40;99.90;;;;;;4951253;29;20552;-81
2022/08/01 06:20:55;;;;;;;;;;;20.50;99.90;;;;;;4953350;28;19941;-80
2022/08/01 06:23:21;;;;;;;;;;;20.50;99.90;;;;;;4964583;28;19926;-81
2022/08/01 06:25:47;;;;;;;;;;;20.60;99.90;;;;;;4947136;28;19918;-79
2022/08/01 06:28:13;;;;;;;;;;;20.70;99.90;;;;;;4950276;28;19915;-81
2022/08/01 06:30:38;;;;;;;;;;;20.70;99.90;;;;;;4945779;28;19922;-80
2022/08/01 06:33:04;;;;;;;;;;;20.80;99.90;;;;;;4947025;28;19915;-80
2022/08/01 06:35:30;;;;;;;;;;;20.80;99.90;;;;;;4948088;28;19965;-80
2022/08/01 06:37:56;;;;;;;;;;;20.70;99.90;;;;;;4961241;28;19914;-79
2022/08/01 06:40:22;;;;;;;;;;;20.70;99.90;;;;;;4939512;28;19918;-81
2022/08/01 06:42:47;;;;;;;;;;;20.70;99.90;;;;;;4938847;28;19921;-82
2022/08/01 06:45:14;;;;;;;;;;;20.80;99.90;;;;;;4946753;28;19918;-80
2022/08/01 06:47:40;;;;;;;;;;;20.80;99.90;;;;;;4969340;28;19914;-80
2022/08/01 06:50:07;;;;;;;;;;;20.90;99.90;;;;;;4954382;28;19922;-79
2022/08/01 06:52:33;;;;;;;;;;;20.90;99.90;;;;;;4946640;28;20030;-80
2022/08/01 06:54:59;;;;;;;;;;;20.90;99.90;;;;;;4938572;29;19919;-79
2022/08/01 06:57:24;;;;;;;;;;;20.90;99.90;;;;;;4948388;29;20427;-81
2022/08/01 06:59:50;;;;;;;;;;;21.00;99.90;;;;;;4951810;29;19950;-80
2022/08/01 07:02:16;;;;;;;;;;;21.00;99.90;;;;;;4965442;28;20017;-80
2022/08/01 07:04:41;;;;;;;;;;;21.00;99.90;;;;;;4943865;29;19950;-80
2022/08/01 07:07:07;;;;;;;;;;;21.10;99.90;;;;;;4949073;28;19926;-81
2022/08/01 07:09:33;;;;;;;;;;;21.20;99.90;;;;;;4955831;28;19911;-80
2022/08/01 07:11:59;;;;;;;;;;;21.20;99.90;;;;;;4938997;29;20001;-80
2022/08/01 07:14:25;;;;;;;;;;;21.30;99.90;;;;;;4943921;28;19954;-80
2022/08/01 07:16:50;;;;;;;;;;;21.40;99.90;;;;;;4929464;29;19910;-81
2022/08/01 07:19:16;;;;;;;;;;;21.50;99.90;;;;;;4943554;28;19919;-81
2022/08/01 07:21:42;;;;;;;;;;;21.50;99.90;;;;;;4944070;29;19914;-81
2022/08/01 07:24:09;;;;;;;;;;;21.50;99.90;;;;;;4960397;28;19916;-81
2022/08/01 07:26:35;;;;;;;;;;;21.60;99.90;;;;;;4938165;29;21329;-81
2022/08/01 07:29:00;;;;;;;;;;;21.60;99.90;;;;;;4939550;28;19925;-81
2022/08/01 07:31:26;;;;;;;;;;;21.60;99.90;;;;;;4931500;29;19922;-80
2022/08/01 07:33:52;;;;;;;;;;;21.70;99.90;;;;;;4941154;29;19923;-80
2022/08/01 07:36:18;;;;;;;;;;;21.70;99.90;;;;;;4956356;28;20190;-81
2022/08/01 07:38:44;;;;;;;;;;;21.80;99.90;;;;;;4963371;28;20013;-81
2022/08/01 07:41:10;;;;;;;;;;;21.80;99.90;;;;;;4939078;28;21516;-78
2022/08/01 07:43:36;;;;;;;;;;;21.80;99.90;;;;;;4919442;29;19910;-80
2022/08/01 07:46:03;;;;;;;;;;;22.00;99.90;;;;;;4940590;28;19922;-80
2022/08/01 07:48:28;;;;;;;;;;;22.40;99.90;;;;;;4930518;28;19915;-81
2022/08/01 07:50:54;;;;;;;;;;;23.10;99.90;;;;;;4943457;28;19986;-79
2022/08/01 07:53:20;;;;;;;;;;;23.50;99.90;;;;;;4945214;28;20325;-79
2022/08/01 07:55:46;;;;;;;;;;;23.70;99.90;;;;;;4938393;28;20730;-81
2022/08/01 07:58:11;;;;;;;;;;;23.60;99.90;;;;;;4942869;29;19918;-80
2022/08/01 08:00:37;;;;;;;;;;;23.50;99.90;;;;;;4945352;28;20514;-78
2022/08/01 08:03:03;;;;;;;;;;;23.30;99.90;;;;;;4958442;28;20001;-80
2022/08/01 08:05:29;;;;;;;;;;;23.10;99.90;;;;;;4944774;28;20309;-79
2022/08/01 08:07:55;;;;;;;;;;;23.20;99.90;;;;;;4953173;28;19915;-79
2022/08/01 08:10:21;;;;;;;;;;;23.40;99.90;;;;;;4928238;29;19990;-81
2022/08/01 08:12:48;;;;;;;;;;;23.70;99.90;;;;;;4943667;28;20394;-80
2022/08/01 08:15:13;;;;;;;;;;;23.70;99.90;;;;;;4941308;28;20006;-79
2022/08/01 08:17:39;;;;;;;;;;;23.50;99.90;;;;;;4944919;28;20048;-80
2022/08/01 08:20:06;;;;;;;;;;;23.30;99.90;;;;;;4940513;28;19919;-80
2022/08/01 08:22:31;;;;;;;;;;;23.10;99.90;;;;;;4935310;29;20307;-80
2022/08/01 08:24:57;;;;;;;;;;;23.00;99.90;;;;;;4935760;29;19914;-82
2022/08/01 08:27:22;;;;;;;;;;;23.00;99.90;;;;;;4967202;28;20132;-79
2022/08/01 08:29:48;;;;;;;;;;;23.00;99.90;;;;;;4950894;28;19914;-79
2022/08/01 08:32:14;;;;;;;;;;;23.20;99.90;;;;;;4951856;28;19921;-81
2022/08/01 08:34:40;;;;;;;;;;;23.50;99.90;;;;;;4947854;28;20490;-80
2022/08/01 08:37:05;;;;;;;;;;;23.60;99.90;;;;;;4945972;28;19910;-79
2022/08/01 08:39:31;;;;;;;;;;;23.80;99.90;;;;;;4951214;29;19915;-80
2022/08/01 08:41:59;;;;;;;;;;;24.00;99.90;;;;;;4967964;28;19918;-79
2022/08/01 08:44:24;;;;;;;;;;;24.20;99.90;;;;;;4949561;28;20515;-79
2022/08/01 08:46:51;;;;;;;;;;;24.40;99.90;;;;;;4937877;28;20009;-80
2022/08/01 08:49:27;;;;;;;;;;;24.70;99.90;;;;;;4954919;28;19922;-80
2022/08/01 08:51:53;;;;;;;;;;;24.80;99.90;;;;;;4954551;28;19911;-82
2022/08/01 08:54:20;;;;;;;;;;;24.90;99.90;;;;;;4950262;29;19919;-81
2022/08/01 08:56:46;;;;;;;;;;;24.70;99.90;;;;;;4952816;28;19924;-81
2022/08/01 08:59:15;;;;;;;;;;;24.70;99.90;;;;;;4969168;28;19910;-82
2022/08/01 09:01:41;;;;;;;;;;;24.60;99.90;;;;;;4949109;28;19911;-80
2022/08/01 09:04:07;;;;;;;;;;;24.40;99.90;;;;;;4949924;28;19965;-80
2022/08/01 09:06:33;;;;;;;;;;;24.30;99.90;;;;;;4949228;28;19918;-82
2022/08/01 09:08:59;;;;;;;;;;;24.20;99.90;;;;;;4949715;29;19921;-80
2022/08/01 09:11:24;;;;;;;;;;;24.20;99.90;;;;;;4951319;28;19948;-81
2022/08/01 09:14:03;;;;;;;;;;;24.10;99.90;;;;;;4966913;28;19945;-80
2022/08/01 09:16:28;;;;;;;;;;;24.10;99.90;;;;;;4953004;28;19910;-80
2022/08/01 09:19:05;;;;;;;;;;;24.10;99.90;;;;;;4951341;28;20379;-79
2022/08/01 09:21:31;;;;;;;;;;;24.10;99.90;;;;;;4953837;28;19941;-80
2022/08/01 09:24:04;;;;;;;;;;;24.20;99.90;;;;;;4952130;28;19937;-81
2022/08/01 09:26:30;;;;;;;;;;;24.20;99.90;;;;;;4949594;28;19918;-81
2022/08/01 09:28:56;;;;;;;;;;;24.20;99.90;;;;;;4943754;28;19969;-79
2022/08/01 09:31:21;;;;;;;;;;;24.20;99.90;;;;;;4939793;29;19914;-80
2022/08/01 09:33:48;;;;;;;;;;;24.20;99.90;;;;;;4942165;29;19915;-81
2022/08/01 09:36:14;;;;;;;;;;;24.20;99.90;;;;;;4944391;28;19922;-79
2022/08/01 09:38:39;;;;;;;;;;;24.20;99.90;;;;;;4946296;28;19914;-80
2022/08/01 09:41:07;;;;;;;;;;;24.10;99.90;;;;;;4931725;29;20174;-79
2022/08/01 09:43:33;;;;;;;;;;;24.00;99.90;;;;;;4952804;28;19918;-80
2022/08/01 09:46:19;;;;;;;;;;;23.90;99.90;;;;;;4951376;28;19922;-81
2022/08/01 09:48:57;;;;;;;;;;;23.90;99.90;;;;;;4947835;28;19917;-81
2022/08/01 09:51:29;;;;;;;;;;;23.50;99.90;;;;;;4948342;28;20479;-81
2022/08/01 09:53:54;;;;;;;;;;;23.50;99.90;;;;;;4930633;29;20494;-80
2022/08/01 09:56:21;;;;;;;;;;;23.60;99.90;;;;;;4960269;28;19950;-80
2022/08/01 09:58:57;;;;;;;;;;;23.80;99.90;;;;;;4955329;28;20005;-80
2022/08/01 10:01:23;;;;;;;;;;;24.10;99.90;;;;;;4955061;28;19914;-81
2022/08/01 10:04:05;;;;;;;;;;;24.50;99.90;;;;;;4946528;28;19911;-80
2022/08/01 10:06:30;;;;;;;;;;;24.80;99.90;;;;;;4941154;28;20580;-81
2022/08/01 10:08:56;;;;;;;;;;;25.10;99.90;;;;;;4958287;28;19950;-79
2022/08/01 10:11:22;;;;;;;;;;;25.20;99.90;;;;;;4955340;28;19922;-81
2022/08/01 10:13:48;;;;;;;;;;;25.20;99.90;;;;;;4942464;29;20292;-80
2022/08/01 10:16:14;;;;;;;;;;;25.30;99.90;;;;;;4949506;28;19915;-81
2022/08/01 10:18:40;;;;;;;;;;;25.20;99.90;;;;;;4969032;28;19957;-80
2022/08/01 10:21:06;;;;;;;;;;;25.00;99.90;;;;;;4955391;28;19914;-81
2022/08/01 10:23:36;;;;;;;;;;;25.00;99.90;;;;;;4965902;28;19910;-80
2022/08/01 10:26:04;;;;;;;;;;;24.90;99.90;;;;;;4954997;28;20538;-81
2022/08/01 10:28:30;;;;;;;;;;;24.70;99.90;;;;;;4971725;28;19922;-81
2022/08/01 10:30:56;;;;;;;;;;;24.50;99.90;;;;;;4959063;28;19955;-81
2022/08/01 10:33:23;;;;;;;;;;;24.30;99.90;;;;;;4953688;28;20191;-82
2022/08/01 10:35:48;;;;;;;;;;;24.20;99.90;;;;;;4955186;28;20586;-81
2022/08/01 10:38:14;;;;;;;;;;;24.20;99.90;;;;;;4956966;28;19914;-81
2022/08/01 10:40:41;;;;;;;;;;;24.10;99.90;;;;;;4936931;28;20315;-82
2022/08/01 10:43:08;;;;;;;;;;;24.10;99.90;;;;;;4956371;28;20017;-81
2022/08/01 10:45:35;;;;;;;;;;;24.00;99.90;;;;;;4945217;28;19965;-82
2022/08/01 10:48:04;;;;;;;;;;;24.00;99.90;;;;;;4922956;29;19997;-81
2022/08/01 10:50:48;;;;;;;;;;;23.90;99.90;;;;;;4951032;28;19910;-81
2022/08/01 10:53:15;;;;;;;;;;;23.80;99.90;;;;;;4945012;28;19910;-82
2022/08/01 10:55:46;;;;;;;;;;;23.70;99.90;;;;;;4949012;29;19910;-82
2022/08/01 10:58:12;;;;;;;;;;;23.80;99.90;;;;;;4951977;28;19918;-81
2022/08/01 11:00:38;;;;;;;;;;;23.80;99.90;;;;;;4956514;28;19914;-81
2022/08/01 11:03:03;;;;;;;;;;;23.80;99.90;;;;;;4968175;28;19914;-80
2022/08/01 11:05:34;;;;;;;;;;;23.80;99.90;;;;;;4953664;28;19929;-80
2022/08/01 11:08:07;;;;;;;;;;;23.90;99.90;;;;;;4954014;28;19915;-81
2022/08/01 11:10:37;;;;;;;;;;;23.90;99.90;;;;;;4944383;29;19916;-81
2022/08/01 11:13:07;;;;;;;;;;;23.90;99.90;;;;;;4953383;29;20441;-81
2022/08/01 11:15:33;;;;;;;;;;;23.80;99.90;;;;;;4953506;28;19994;-80
2022/08/01 11:18:00;;;;;;;;;;;23.80;99.90;;;;;;4947509;29;19914;-82
2022/08/01 11:20:29;;;;;;;;;;;23.60;99.90;;;;;;4951001;29;19918;-82
2022/08/01 11:22:58;;;;;;;;;;;23.60;99.90;;;;;;4938426;29;19914;-80
2022/08/01 11:25:24;;;;;;;;;;;23.70;99.90;;;;;;4958961;28;20379;-79
2022/08/01 11:28:10;;;;;;;;;;;23.70;99.90;;;;;;4931895;29;19914;-79
2022/08/01 11:30:35;;;;;;;;;;;23.90;99.90;;;;;;4942457;28;19914;-80
2022/08/01 11:33:01;;;;;;;;;;;24.00;99.90;;;;;;4947007;29;19922;-80
2022/08/01 11:35:27;;;;;;;;;;;24.10;99.90;;;;;;4947830;28;19918;-80
2022/08/01 11:37:56;;;;;;;;;;;24.20;99.90;;;;;;4939682;28;19942;-81
2022/08/01 11:40:31;;;;;;;;;;;24.20;99.90;;;;;;4940698;29;19911;-84
2022/08/01 11:43:12;;;;;;;;;;;24.20;99.90;;;;;;4949688;28;19910;-83
2022/08/01 11:45:51;;;;;;;;;;;24.30;99.90;;;;;;4949363;28;19914;-81
2022/08/01 11:48:20;;;;;;;;;;;24.20;99.90;;;;;;4963648;28;19945;-79
2022/08/01 11:50:45;;;;;;;;;;;24.30;99.90;;;;;;4927450;29;19907;-81
2022/08/01 11:53:14;;;;;;;;;;;24.20;99.90;;;;;;4945689;29;20247;-80
2022/08/01 11:55:50;;;;;;;;;;;24.20;99.90;;;;;;4938504;29;20204;-81
2022/08/01 11:58:20;;;;;;;;;;;24.20;99.90;;;;;;4947018;29;19977;-80
2022/08/01 12:00:52;;;;;;;;;;;24.10;99.90;;;;;;4947560;29;19954;-82
2022/08/01 12:03:23;;;;;;;;;;;24.10;99.90;;;;;;4958266;28;19910;-81
2022/08/01 12:05:49;;;;;;;;;;;24.00;99.90;;;;;;4948396;28;19922;-80
2022/08/01 12:08:23;;;;;;;;;;;24.00;99.90;;;;;;4947329;28;19965;-81
2022/08/01 12:10:49;;;;;;;;;;;24.00;99.90;;;;;;4958718;28;19978;-80
2022/08/01 12:13:17;;;;;;;;;;;23.90;99.90;;;;;;4962124;28;19922;-81
2022/08/01 12:15:45;;;;;;;;;;;23.90;99.90;;;;;;4946626;28;20587;-80
2022/08/01 12:18:10;;;;;;;;;;;23.90;99.90;;;;;;4952305;28;19958;-80
2022/08/01 12:20:38;;;;;;;;;;;24.00;99.90;;;;;;4961411;28;20434;-80
2022/08/01 12:23:07;;;;;;;;;;;24.30;99.90;;;;;;4947447;29;19926;-80
2022/08/01 12:25:33;;;;;;;;;;;24.50;99.90;;;;;;4958158;28;19914;-80
2022/08/01 12:28:03;;;;;;;;;;;24.70;99.90;;;;;;4942977;29;20370;-79
2022/08/01 12:30:30;;;;;;;;;;;24.90;99.30;;;;;;4945626;29;19988;-81
2022/08/01 12:32:56;;;;;;;;;;;24.90;99.60;;;;;;4945219;28;19973;-80
2022/08/01 12:35:26;;;;;;;;;;;24.90;99.70;;;;;;4958541;28;19922;-80
2022/08/01 12:37:53;;;;;;;;;;;24.90;99.70;;;;;;4945010;28;19910;-80
2022/08/01 12:40:19;;;;;;;;;;;25.10;99.30;;;;;;4944501;29;19922;-80
2022/08/01 12:42:46;;;;;;;;;;;25.30;98.80;;;;;;4954483;28;19914;-79
2022/08/01 12:45:14;;;;;;;;;;;25.40;98.20;;;;;;4926213;28;19915;-79
2022/08/01 12:47:40;;;;;;;;;;;25.20;97.30;;;;;;4936647;28;19914;-80
2022/08/01 12:50:07;;;;;;;;;;;25.30;98.80;;;;;;4926322;29;19917;-80
2022/08/01 12:52:33;;;;;;;;;;;25.30;98.80;;;;;;4946497;28;20021;-80
2022/08/01 12:54:59;;;;;;;;;;;25.30;97.50;;;;;;4956313;28;20394;-81
2022/08/01 12:57:25;;;;;;;;;;;25.30;96.70;;;;;;4942166;28;19910;-80
2022/08/01 12:59:52;;;;;;;;;;;25.10;96.60;;;;;;4931762;29;19939;-81
2022/08/01 13:02:18;;;;;;;;;;;25.10;97.20;;;;;;4955417;28;20307;-80
2022/08/01 13:04:53;;;;;;;;;;;25.10;97.00;;;;;;4939901;29;19961;-80
2022/08/01 13:07:18;;;;;;;;;;;25.20;97.10;;;;;;4930309;29;19930;-80
2022/08/01 13:09:51;;;;;;;;;;;25.30;96.50;;;;;;4960701;28;20010;-79
2022/08/01 13:12:16;;;;;;;;;;;25.30;97.00;;;;;;4928968;29;21570;-81
2022/08/01 13:14:42;;;;;;;;;;;25.30;96.70;;;;;;4927801;29;20013;-81
2022/08/01 13:17:08;;;;;;;;;;;25.30;96.30;;;;;;4944177;29;20005;-81
2022/08/01 13:19:44;;;;;;;;;;;25.30;97.20;;;;;;4943869;29;19915;-80
2022/08/01 13:25:27;;;;;;;;;;;25.30;98.20;;;;;;4961534;28;19917;-80
2022/08/01 13:28:12;;;;;;;;;;;25.30;98.90;;;;;;4952880;28;20421;-79
2022/08/01 13:30:38;;;;;;;;;;;25.40;97.60;;;;;;4943444;28;20001;-80
2022/08/01 13:33:04;;;;;;;;;;;25.50;97.20;;;;;;4933658;28;19994;-79
2022/08/01 13:35:29;;;;;;;;;;;25.80;96.90;;;;;;4960598;28;20058;-80
2022/08/01 13:37:56;;;;;;;;;;;25.90;96.60;;;;;;4945684;28;19918;-80
2022/08/01 13:40:26;;;;;;;;;;;26.00;94.90;;;;;;4942045;28;20583;-81
2022/08/01 13:42:53;;;;;;;;;;;26.10;95.90;;;;;;4957045;28;19911;-79
2022/08/01 13:45:19;;;;;;;;;;;25.90;97.00;;;;;;4951090;28;19918;-78
2022/08/01 13:47:45;;;;;;;;;;;25.70;97.50;;;;;;4943338;28;19997;-81
2022/08/01 13:50:11;;;;;;;;;;;25.70;97.00;;;;;;4947004;29;19945;-80
2022/08/01 13:52:36;;;;;;;;;;;25.70;94.90;;;;;;4931545;28;19915;-79
2022/08/01 13:55:02;;;;;;;;;;;25.80;97.00;;;;;;4925619;29;19919;-81
2022/08/01 13:57:28;;;;;;;;;;;25.90;97.10;;;;;;4938501;29;19969;-79
2022/08/01 13:59:59;;;;;;;;;;;26.10;95.40;;;;;;4955266;28;19921;-81
2022/08/01 14:02:26;;;;;;;;;;;26.20;94.60;;;;;;4946826;29;20354;-80
2022/08/01 14:04:53;;;;;;;;;;;26.40;94.90;;;;;;4951823;29;19969;-81
2022/08/01 14:07:19;;;;;;;;;;;26.40;94.50;;;;;;4955543;28;19918;-82
2022/08/01 14:09:45;;;;;;;;;;;26.20;94.40;;;;;;4966187;28;20287;-82
2022/08/01 14:12:11;;;;;;;;;;;26.20;96.00;;;;;;4949530;29;19915;-79
2022/08/01 14:14:38;;;;;;;;;;;26.20;96.50;;;;;;4951274;28;19910;-81
2022/08/01 14:17:04;;;;;;;;;;;26.20;93.50;;;;;;4949748;28;19999;-79
2022/08/01 14:19:30;;;;;;;;;;;26.30;93.60;;;;;;4946950;29;19915;-80